Time;durP1;ratioP1;P1;durP2;ratioP2;P2;SDS_P1;SDS_P2;PMS_P1;PMS_P2;Temp;Humidity;BMP_temperature;BMP_pressure;BME280_temperature;BME280_humidity;BME280_pressure;Samples;Min_cycle;Max_cycle;Signal;HPM_P1;HPM_P2
2021/03/10 00:00:15;;;;;;;23.50;17.10;;;6.50;99.90;;;;;;5036352;28;20683;-68
2021/03/10 00:02:41;;;;;;;19.50;16.10;;;6.50;99.90;;;;;;5033599;28;20202;-68
2021/03/10 00:05:08;;;;;;;21.93;16.83;;;6.50;99.90;;;;;;5034796;28;20766;-67
2021/03/10 00:07:34;;;;;;;19.20;16.00;;;6.60;99.90;;;;;;5045367;28;20182;-69
2021/03/10 00:09:59;;;;;;;20.83;17.63;;;6.50;99.90;;;;;;5050695;28;20849;-68
2021/03/10 00:12:25;;;;;;;24.53;18.00;;;6.50;99.90;;;;;;5055725;28;20647;-68
2021/03/10 00:14:51;;;;;;;21.33;17.17;;;6.50;99.90;;;;;;5070713;28;20170;-68
2021/03/10 00:17:16;;;;;;;22.83;16.27;;;6.50;99.90;;;;;;5068728;28;20420;-68
2021/03/10 00:19:42;;;;;;;21.73;17.90;;;6.50;99.90;;;;;;5057001;28;20240;-68
2021/03/10 00:22:08;;;;;;;20.27;16.53;;;6.50;99.90;;;;;;5051544;28;20618;-68
2021/03/10 00:24:34;;;;;;;19.30;15.80;;;6.40;99.90;;;;;;5053567;28;20174;-69
2021/03/10 00:27:00;;;;;;;25.70;18.60;;;6.40;99.90;;;;;;5053302;28;20434;-68
2021/03/10 00:29:26;;;;;;;21.03;18.00;;;6.40;99.90;;;;;;5053098;28;20409;-68
2021/03/10 00:31:52;;;;;;;20.13;16.90;;;6.50;99.90;;;;;;5051582;28;20170;-69
2021/03/10 00:34:17;;;;;;;22.30;17.70;;;6.50;99.90;;;;;;5054098;28;20527;-68
2021/03/10 00:36:43;;;;;;;23.73;17.57;;;6.50;99.90;;;;;;5057704;28;20178;-68
2021/03/10 00:39:08;;;;;;;23.47;17.33;;;6.50;99.90;;;;;;5057223;28;20175;-68
2021/03/10 00:41:34;;;;;;;24.40;18.00;;;6.50;99.90;;;;;;5055699;28;20194;-68
2021/03/10 00:43:59;;;;;;;19.53;17.23;;;6.50;99.90;;;;;;5057482;28;20202;-68
2021/03/10 00:46:25;;;;;;;23.43;18.07;;;6.60;99.90;;;;;;5056671;28;20654;-68
2021/03/10 00:48:50;;;;;;;24.43;17.97;;;6.60;99.90;;;;;;5057118;28;20611;-68
2021/03/10 00:51:16;;;;;;;23.33;16.97;;;6.60;99.90;;;;;;5046317;28;20643;-68
2021/03/10 00:53:42;;;;;;;21.63;17.83;;;6.60;99.90;;;;;;5037376;28;20228;-67
2021/03/10 00:56:08;;;;;;;22.10;18.67;;;6.70;99.90;;;;;;5037264;28;20555;-68
2021/03/10 00:58:33;;;;;;;19.10;16.90;;;6.60;99.90;;;;;;5036896;28;20437;-68
2021/03/10 01:00:59;;;;;;;20.10;17.20;;;6.70;99.90;;;;;;5038258;28;20445;-68
2021/03/10 01:03:24;;;;;;;20.10;17.07;;;6.60;99.90;;;;;;5037216;28;20203;-69
2021/03/10 01:05:50;;;;;;;23.10;15.50;;;6.60;99.90;;;;;;5037110;28;20171;-70
2021/03/10 01:08:15;;;;;;;23.20;18.73;;;6.60;99.90;;;;;;5036575;28;20206;-69
2021/03/10 01:10:41;;;;;;;22.43;18.00;;;6.60;99.90;;;;;;5037439;28;20524;-68
2021/03/10 01:13:07;;;;;;;19.53;17.43;;;6.70;99.90;;;;;;5037262;28;20700;-68
2021/03/10 01:15:32;;;;;;;20.13;16.67;;;6.70;99.90;;;;;;5036737;28;20198;-70
2021/03/10 01:17:58;;;;;;;25.83;17.60;;;6.60;99.90;;;;;;5035657;28;20428;-68
2021/03/10 01:20:24;;;;;;;22.87;17.03;;;6.60;99.90;;;;;;5037099;28;20206;-67
2021/03/10 01:22:50;;;;;;;23.27;18.03;;;6.60;99.90;;;;;;5038550;28;20210;-67
2021/03/10 01:25:18;;;;;;;20.67;16.67;;;6.60;99.90;;;;;;5037014;28;20412;-70
2021/03/10 01:27:44;;;;;;;22.93;17.80;;;6.60;99.90;;;;;;5051855;28;20190;-67
2021/03/10 01:30:12;;;;;;;23.00;18.23;;;6.50;99.90;;;;;;5056345;28;20455;-68
2021/03/10 01:32:38;;;;;;;19.70;16.27;;;6.50;99.90;;;;;;5055366;28;20584;-68
2021/03/10 01:35:05;;;;;;;24.40;17.57;;;6.60;99.90;;;;;;5056470;28;20420;-68
2021/03/10 01:37:31;;;;;;;22.20;17.67;;;6.50;99.90;;;;;;5048180;28;20862;-68
2021/03/10 01:39:57;;;;;;;20.23;16.90;;;6.60;99.90;;;;;;5036216;28;20525;-68
2021/03/10 01:42:23;;;;;;;21.83;17.60;;;6.60;99.90;;;;;;5036824;28;21015;-69
2021/03/10 01:44:49;;;;;;;26.30;17.77;;;6.60;99.90;;;;;;5040304;28;20473;-69
2021/03/10 01:47:15;;;;;;;20.60;17.57;;;6.60;99.90;;;;;;5055078;28;20554;-68
2021/03/10 01:49:41;;;;;;;22.53;17.40;;;6.60;99.90;;;;;;5056177;28;20443;-68
2021/03/10 01:52:08;;;;;;;23.77;16.67;;;6.60;99.90;;;;;;5056473;28;20778;-68
2021/03/10 01:54:34;;;;;;;25.30;17.40;;;6.60;99.90;;;;;;5056260;28;20506;-68
2021/03/10 01:57:01;;;;;;;22.70;16.97;;;6.50;99.90;;;;;;5055064;28;20906;-69
2021/03/10 01:59:26;;;;;;;19.93;17.27;;;6.50;99.90;;;;;;5055557;28;20455;-68
2021/03/10 02:01:52;;;;;;;24.50;18.53;;;6.50;99.90;;;;;;5056492;28;20417;-68
2021/03/10 02:04:18;;;;;;;22.33;18.10;;;6.60;99.90;;;;;;5056259;28;20261;-68
2021/03/10 02:07:14;;;;;;;19.43;16.60;;;6.60;99.90;;;;;;5054304;28;20205;-68
2021/03/10 02:10:01;;;;;;;20.70;17.60;;;6.60;99.90;;;;;;5055611;28;20435;-68
2021/03/10 02:12:33;;;;;;;27.33;17.20;;;6.60;99.90;;;;;;5056061;28;20427;-68
2021/03/10 02:15:06;;;;;;;22.10;18.37;;;6.60;99.90;;;;;;5056516;28;20762;-68
2021/03/10 02:17:37;;;;;;;19.67;16.87;;;6.50;99.90;;;;;;5054343;28;20974;-68
2021/03/10 02:20:07;;;;;;;29.30;17.57;;;6.50;99.90;;;;;;5055908;28;20459;-68
2021/03/10 02:22:55;;;;;;;21.37;17.07;;;6.50;99.90;;;;;;5055657;28;20462;-68
2021/03/10 02:25:21;;;;;;;19.90;16.93;;;6.60;99.90;;;;;;5046453;28;20739;-68
2021/03/10 02:27:52;;;;;;;22.40;18.13;;;6.50;99.90;;;;;;5035652;28;20436;-69
2021/03/10 02:30:21;;;;;;;22.67;17.93;;;6.50;99.90;;;;;;5035834;28;20270;-69
2021/03/10 02:32:58;;;;;;;21.27;16.53;;;6.50;99.90;;;;;;5035440;28;20758;-68
2021/03/10 02:35:25;;;;;;;22.50;16.90;;;6.50;99.90;;;;;;5037907;28;20432;-69
2021/03/10 02:37:55;;;;;;;20.20;17.63;;;6.50;99.90;;;;;;5039398;28;20413;-68
2021/03/10 02:40:24;;;;;;;22.70;17.90;;;6.50;99.90;;;;;;5037200;28;20914;-68
2021/03/10 02:42:51;;;;;;;23.30;18.20;;;6.50;99.90;;;;;;5034463;28;20838;-68
2021/03/10 02:45:17;;;;;;;21.40;16.87;;;6.50;99.90;;;;;;5035899;28;20425;-68
2021/03/10 02:47:42;;;;;;;23.27;18.00;;;6.50;99.90;;;;;;5035832;28;20766;-68
2021/03/10 02:50:11;;;;;;;24.90;17.10;;;6.50;99.90;;;;;;5035563;28;20195;-68
2021/03/10 02:52:37;;;;;;;24.33;19.57;;;6.50;99.90;;;;;;5036050;28;20573;-68
2021/03/10 02:55:03;;;;;;;25.00;18.97;;;6.50;99.90;;;;;;5036472;28;20534;-68
2021/03/10 02:57:31;;;;;;;23.37;17.87;;;6.50;99.90;;;;;;5034793;28;20438;-68
2021/03/10 03:00:04;;;;;;;23.33;18.23;;;6.40;99.90;;;;;;5035469;28;20958;-68
2021/03/10 03:02:30;;;;;;;22.87;17.50;;;6.40;99.90;;;;;;5049909;28;20449;-68
2021/03/10 03:04:55;;;;;;;22.77;16.93;;;6.40;99.90;;;;;;5057520;28;20482;-68
2021/03/10 03:07:21;;;;;;;24.63;18.13;;;6.40;99.90;;;;;;5069642;28;20269;-68
2021/03/10 03:09:47;;;;;;;25.43;18.27;;;6.40;99.90;;;;;;5057344;28;20224;-68
2021/03/10 03:12:13;;;;;;;22.57;17.70;;;6.40;99.90;;;;;;5064401;28;20220;-68
2021/03/10 03:14:41;;;;;;;21.30;17.00;;;6.40;99.90;;;;;;5056422;28;20420;-68
2021/03/10 03:17:08;;;;;;;21.53;17.67;;;6.40;99.90;;;;;;5055023;28;20458;-68
2021/03/10 03:19:33;;;;;;;21.27;18.07;;;6.40;99.90;;;;;;5053328;28;20416;-68
2021/03/10 03:22:00;;;;;;;23.83;17.83;;;6.40;99.90;;;;;;5055084;28;20440;-68
2021/03/10 03:24:28;;;;;;;22.03;18.07;;;6.30;99.90;;;;;;5055366;28;20167;-68
2021/03/10 03:26:55;;;;;;;24.17;17.97;;;6.30;99.90;;;;;;5056064;28;20409;-69
2021/03/10 03:29:21;;;;;;;22.73;18.37;;;6.30;99.90;;;;;;5053189;28;20426;-68
2021/03/10 03:31:48;;;;;;;24.03;18.87;;;6.30;99.90;;;;;;5055061;28;20486;-68
2021/03/10 03:34:14;;;;;;;24.40;18.60;;;6.20;99.90;;;;;;5063730;28;20417;-68
2021/03/10 03:36:40;;;;;;;22.83;18.27;;;6.20;99.90;;;;;;5067468;28;20898;-68
2021/03/10 03:39:07;;;;;;;26.20;19.20;;;6.10;99.90;;;;;;5052942;28;20420;-68
2021/03/10 03:41:34;;;;;;;23.07;18.90;;;6.10;99.90;;;;;;5065632;28;20432;-68
2021/03/10 03:44:03;;;;;;;26.57;20.23;;;6.10;99.90;;;;;;5066388;28;20478;-69
2021/03/10 03:46:31;;;;;;;25.03;18.60;;;6.00;99.90;;;;;;5058225;28;20474;-68
2021/03/10 03:49:00;;;;;;;24.87;18.50;;;6.00;99.90;;;;;;5054519;28;20413;-68
2021/03/10 03:51:30;;;;;;;28.87;20.43;;;5.90;99.90;;;;;;5035862;28;20441;-69
2021/03/10 03:53:58;;;;;;;28.80;21.00;;;5.90;99.90;;;;;;5034560;28;20875;-68
2021/03/10 03:56:24;;;;;;;30.73;21.60;;;5.80;99.90;;;;;;5034110;28;20759;-69
2021/03/10 03:58:50;;;;;;;25.63;20.13;;;5.80;99.90;;;;;;5033729;28;20410;-68
2021/03/10 04:01:15;;;;;;;26.40;20.80;;;5.80;99.90;;;;;;5035142;28;20459;-68
2021/03/10 04:03:43;;;;;;;30.23;22.30;;;5.70;99.90;;;;;;5034955;28;20464;-68
2021/03/10 04:06:09;;;;;;;30.97;21.03;;;5.60;99.90;;;;;;5053539;28;20178;-68
2021/03/10 04:08:34;;;;;;;27.93;21.30;;;5.60;99.90;;;;;;5053471;28;20412;-68
2021/03/10 04:11:00;;;;;;;28.80;20.80;;;5.60;99.90;;;;;;5052578;28;20210;-68
2021/03/10 04:13:25;;;;;;;31.30;22.70;;;5.60;99.90;;;;;;5053595;28;20181;-68
2021/03/10 04:15:51;;;;;;;26.13;19.87;;;5.60;99.90;;;;;;5054235;28;20170;-68
2021/03/10 04:18:16;;;;;;;30.00;22.40;;;5.60;99.90;;;;;;5054137;28;20185;-69
2021/03/10 04:20:42;;;;;;;25.00;20.83;;;5.60;99.90;;;;;;5053758;28;20303;-68
2021/03/10 04:23:08;;;;;;;27.40;20.83;;;5.60;99.90;;;;;;5051635;28;20236;-67
2021/03/10 04:25:33;;;;;;;25.13;19.60;;;5.60;99.90;;;;;;5053706;28;20186;-70
2021/03/10 04:27:59;;;;;;;27.97;18.90;;;5.70;99.90;;;;;;5053659;28;20277;-68
2021/03/10 04:30:24;;;;;;;26.90;20.00;;;5.70;99.90;;;;;;5053625;28;20197;-69
2021/03/10 04:32:50;;;;;;;27.37;20.40;;;5.60;99.90;;;;;;5052225;28;20525;-68
2021/03/10 04:35:16;;;;;;;28.30;20.07;;;5.60;99.90;;;;;;5054614;28;20180;-69
2021/03/10 04:37:42;;;;;;;29.90;22.60;;;5.60;99.90;;;;;;5054272;28;20229;-69
2021/03/10 04:40:09;;;;;;;26.23;19.83;;;5.50;99.90;;;;;;5052179;28;20456;-69
2021/03/10 04:42:35;;;;;;;25.77;21.40;;;5.40;99.90;;;;;;5052249;28;20197;-69
2021/03/10 04:45:02;;;;;;;26.47;21.00;;;5.50;99.90;;;;;;5054094;28;20462;-69
2021/03/10 04:47:28;;;;;;;26.73;21.03;;;5.50;99.90;;;;;;5054185;28;20393;-70
2021/03/10 04:49:53;;;;;;;22.20;18.07;;;5.50;99.90;;;;;;5053885;28;20429;-68
2021/03/10 04:52:19;;;;;;;25.70;18.70;;;5.50;99.90;;;;;;5054028;28;20202;-69
2021/03/10 04:54:44;;;;;;;25.40;19.37;;;5.50;99.90;;;;;;5051741;28;20190;-69
2021/03/10 04:57:10;;;;;;;25.10;19.10;;;5.60;99.90;;;;;;5054000;28;20178;-69
2021/03/10 04:59:35;;;;;;;25.53;18.70;;;5.60;99.90;;;;;;5054022;28;20226;-69
2021/03/10 05:02:01;;;;;;;23.23;17.60;;;5.50;99.90;;;;;;5058712;28;20239;-68
2021/03/10 05:04:26;;;;;;;23.53;18.80;;;5.50;99.90;;;;;;5061018;28;20236;-69
2021/03/10 05:06:52;;;;;;;24.17;17.93;;;5.50;99.90;;;;;;5062082;28;20209;-69
2021/03/10 05:09:17;;;;;;;23.43;17.43;;;5.40;99.90;;;;;;5062791;28;20240;-68
2021/03/10 05:11:43;;;;;;;21.37;17.33;;;5.30;99.90;;;;;;5063556;28;20201;-67
2021/03/10 05:14:08;;;;;;;25.50;19.70;;;5.30;99.90;;;;;;5062656;28;20182;-68
2021/03/10 05:16:34;;;;;;;24.83;19.47;;;5.30;99.90;;;;;;5057196;28;20190;-68
2021/03/10 05:18:59;;;;;;;25.30;21.13;;;5.30;99.90;;;;;;5053094;28;20550;-69
2021/03/10 05:21:25;;;;;;;23.80;18.90;;;5.40;99.90;;;;;;5055313;28;20225;-69
2021/03/10 05:23:51;;;;;;;22.70;18.07;;;5.40;99.90;;;;;;5057056;28;20701;-67
2021/03/10 05:26:16;;;;;;;24.03;19.10;;;5.50;99.90;;;;;;5055841;28;20178;-68
2021/03/10 05:28:42;;;;;;;23.90;19.40;;;5.50;99.90;;;;;;5056824;28;20178;-68
2021/03/10 05:31:08;;;;;;;27.23;20.53;;;5.40;99.90;;;;;;5057277;28;20567;-68
2021/03/10 05:33:34;;;;;;;28.33;18.93;;;5.30;99.90;;;;;;5056675;28;20178;-68
2021/03/10 05:36:00;;;;;;;24.30;18.87;;;5.30;99.90;;;;;;5055621;28;20440;-68
2021/03/10 05:38:25;;;;;;;25.07;19.90;;;5.20;99.90;;;;;;5041053;28;20425;-68
2021/03/10 05:40:51;;;;;;;23.93;20.77;;;5.20;99.90;;;;;;5036679;28;20217;-68
2021/03/10 05:43:18;;;;;;;23.90;19.83;;;5.10;99.90;;;;;;5036612;28;20205;-68
2021/03/10 05:45:44;;;;;;;23.53;18.83;;;5.20;99.90;;;;;;5038512;28;20441;-70
2021/03/10 05:48:10;;;;;;;25.60;19.10;;;5.20;99.90;;;;;;5047670;28;20977;-69
2021/03/10 05:50:37;;;;;;;27.30;18.37;;;5.20;99.90;;;;;;5046938;28;20493;-68
2021/03/10 05:53:03;;;;;;;27.47;20.73;;;5.10;99.90;;;;;;5050542;28;20435;-69
2021/03/10 05:55:30;;;;;;;26.97;20.67;;;5.20;99.90;;;;;;5049722;28;20534;-70
2021/03/10 05:57:56;;;;;;;23.87;18.67;;;5.20;99.90;;;;;;5049340;28;20494;-69
2021/03/10 06:00:22;;;;;;;23.10;19.40;;;5.20;99.90;;;;;;5042598;28;20535;-69
2021/03/10 06:02:51;;;;;;;21.43;17.40;;;5.20;99.90;;;;;;5049608;28;20449;-69
2021/03/10 06:05:24;;;;;;;22.83;18.17;;;5.20;99.90;;;;;;5047427;28;20443;-69
2021/03/10 06:08:03;;;;;;;21.97;17.30;;;5.20;99.90;;;;;;5050215;28;20431;-70
2021/03/10 06:11:04;;;;;;;23.63;19.03;;;5.30;99.90;;;;;;5048403;28;20455;-68
2021/03/10 06:13:31;;;;;;;21.97;17.80;;;5.40;99.90;;;;;;5042384;28;20439;-68
2021/03/10 06:15:59;;;;;;;20.33;17.53;;;5.40;99.90;;;;;;5054135;28;20432;-68
2021/03/10 06:18:31;;;;;;;22.83;18.00;;;5.40;99.90;;;;;;5052816;28;20516;-70
2021/03/10 06:21:04;;;;;;;20.20;16.73;;;5.40;99.90;;;;;;5052868;28;20562;-68
2021/03/10 06:23:30;;;;;;;24.67;18.10;;;5.40;99.90;;;;;;5053010;28;20500;-69
2021/03/10 06:25:56;;;;;;;26.50;18.23;;;5.40;99.90;;;;;;5053829;28;20454;-69
2021/03/10 06:28:24;;;;;;;20.37;17.07;;;5.40;99.90;;;;;;5045437;28;20744;-68
2021/03/10 06:30:49;;;;;;;21.57;16.70;;;5.40;99.90;;;;;;5032832;28;20203;-68
2021/03/10 06:33:22;;;;;;;24.73;18.60;;;5.50;99.90;;;;;;5033884;28;20439;-69
2021/03/10 06:35:48;;;;;;;21.60;18.80;;;5.60;99.90;;;;;;5023077;28;20242;-68
2021/03/10 06:38:18;;;;;;;22.70;18.23;;;5.70;99.90;;;;;;5058739;28;20522;-68
2021/03/10 06:40:50;;;;;;;21.30;17.17;;;5.70;99.90;;;;;;5057084;28;20267;-68
2021/03/10 06:43:16;;;;;;;24.07;18.33;;;5.80;99.90;;;;;;5028620;28;20477;-68
2021/03/10 06:45:41;;;;;;;21.80;17.80;;;5.90;99.90;;;;;;5032644;28;20417;-68
2021/03/10 06:48:18;;;;;;;23.13;18.47;;;6.00;99.90;;;;;;5050687;28;20466;-68
2021/03/10 06:50:44;;;;;;;20.50;17.33;;;6.00;99.90;;;;;;5049596;28;20216;-69
2021/03/10 06:53:10;;;;;;;24.37;21.77;;;6.10;99.90;;;;;;5064432;28;20904;-70
2021/03/10 06:55:43;;;;;;;23.90;20.00;;;6.10;99.90;;;;;;5050794;28;20201;-69
2021/03/10 06:58:09;;;;;;;24.23;18.60;;;6.10;99.90;;;;;;5031400;28;20445;-69
2021/03/10 07:00:35;;;;;;;23.80;18.50;;;6.20;99.90;;;;;;5032700;28;20499;-70
2021/03/10 07:03:01;;;;;;;21.80;17.87;;;6.20;99.90;;;;;;5036295;28;20483;-69
2021/03/10 07:05:29;;;;;;;21.77;17.63;;;6.20;99.90;;;;;;5061742;28;20407;-70
2021/03/10 07:07:55;;;;;;;20.57;18.23;;;6.20;99.90;;;;;;5073586;28;20439;-68
2021/03/10 07:10:22;;;;;;;21.30;19.00;;;6.30;99.90;;;;;;5070946;28;20445;-69
2021/03/10 07:12:49;;;;;;;20.47;17.63;;;6.40;99.90;;;;;;5070811;28;20505;-68
2021/03/10 07:15:15;;;;;;;20.90;17.37;;;6.40;99.90;;;;;;5054369;28;20445;-69
2021/03/10 07:17:42;;;;;;;21.27;16.80;;;6.50;99.90;;;;;;5029393;28;21275;-69
2021/03/10 07:20:08;;;;;;;24.30;17.87;;;6.50;99.90;;;;;;5029529;28;20849;-69
2021/03/10 07:22:43;;;;;;;23.00;18.13;;;6.50;99.90;;;;;;5051936;28;20998;-69
2021/03/10 07:25:24;;;;;;;24.17;18.33;;;6.60;99.90;;;;;;5064865;28;20451;-69
2021/03/10 07:28:26;;;;;;;24.97;20.07;;;6.60;99.90;;;;;;5049609;28;20408;-69
2021/03/10 07:30:52;;;;;;;27.97;21.37;;;6.70;99.90;;;;;;5049477;28;20441;-68
2021/03/10 07:33:19;;;;;;;25.97;21.90;;;6.70;99.90;;;;;;5050023;28;20416;-69
2021/03/10 07:36:02;;;;;;;28.33;21.60;;;6.80;99.90;;;;;;5049715;28;20300;-69
2021/03/10 07:38:33;;;;;;;28.80;21.60;;;6.80;99.90;;;;;;5047400;28;20452;-68
2021/03/10 07:41:01;;;;;;;27.57;21.70;;;6.90;99.90;;;;;;5049851;28;20433;-70
2021/03/10 07:43:34;;;;;;;29.67;23.30;;;6.90;99.90;;;;;;5049352;28;20456;-70
2021/03/10 07:45:59;;;;;;;24.70;20.57;;;6.90;99.90;;;;;;5049687;28;20405;-69
2021/03/10 07:48:33;;;;;;;28.60;21.33;;;6.90;99.90;;;;;;5047273;28;20454;-68
2021/03/10 07:51:00;;;;;;;28.33;22.30;;;6.90;99.90;;;;;;5049120;28;20194;-69
2021/03/10 07:53:38;;;;;;;29.57;22.70;;;6.90;99.90;;;;;;5049535;28;20506;-68
2021/03/10 07:56:05;;;;;;;26.70;20.97;;;6.90;99.90;;;;;;5056791;28;20423;-68
2021/03/10 07:58:31;;;;;;;26.27;20.87;;;6.90;99.90;;;;;;5069291;28;20428;-68
2021/03/10 08:00:58;;;;;;;27.90;22.27;;;7.00;99.90;;;;;;5069560;28;20438;-68
2021/03/10 08:03:42;;;;;;;24.63;20.53;;;7.00;99.90;;;;;;5055481;28;20481;-69
2021/03/10 08:06:10;;;;;;;31.10;22.90;;;7.00;99.90;;;;;;5046140;28;20432;-68
2021/03/10 08:08:41;;;;;;;28.10;21.40;;;7.00;99.90;;;;;;5039606;28;20523;-68
2021/03/10 08:11:16;;;;;;;26.20;20.90;;;7.10;99.90;;;;;;5047601;28;20456;-68
2021/03/10 08:13:42;;;;;;;25.60;20.90;;;7.10;99.90;;;;;;5049203;28;20420;-68
2021/03/10 08:16:09;;;;;;;29.77;23.23;;;7.20;99.90;;;;;;5038828;28;20422;-68
2021/03/10 08:18:36;;;;;;;28.13;22.30;;;7.10;99.90;;;;;;5028739;28;20501;-68
2021/03/10 08:21:16;;;;;;;26.50;21.03;;;7.20;99.90;;;;;;5033949;28;20495;-67
2021/03/10 08:23:42;;;;;;;28.67;22.40;;;7.20;99.90;;;;;;5049212;28;20543;-67
2021/03/10 08:26:08;;;;;;;31.90;24.03;;;7.20;99.90;;;;;;5033896;28;20423;-67
2021/03/10 08:28:39;;;;;;;31.40;24.07;;;7.20;99.90;;;;;;5050310;28;20536;-70
2021/03/10 08:31:07;;;;;;;34.03;26.27;;;7.30;99.90;;;;;;5046317;28;20482;-72
2021/03/10 08:33:51;;;;;;;30.30;23.73;;;7.30;99.90;;;;;;5049561;28;20454;-68
2021/03/10 08:36:17;;;;;;;30.33;23.53;;;7.30;99.90;;;;;;5049106;28;20909;-68
2021/03/10 08:38:44;;;;;;;36.50;23.57;;;7.30;99.90;;;;;;5048623;28;20648;-69
2021/03/10 08:41:13;;;;;;;32.07;25.10;;;7.30;99.90;;;;;;5048298;28;20937;-69
2021/03/10 08:43:39;;;;;;;32.03;24.17;;;7.30;99.90;;;;;;5034416;28;20464;-69
2021/03/10 08:46:04;;;;;;;30.27;23.90;;;7.30;99.90;;;;;;5029170;28;20413;-69
2021/03/10 08:48:32;;;;;;;31.23;23.73;;;7.30;99.90;;;;;;5028163;28;20257;-69
2021/03/10 08:51:03;;;;;;;33.63;24.10;;;7.40;99.90;;;;;;5027765;28;20191;-68
2021/03/10 08:53:29;;;;;;;29.00;22.27;;;7.40;99.90;;;;;;5028880;28;20422;-70
2021/03/10 08:56:07;;;;;;;31.20;22.07;;;7.50;99.90;;;;;;5030956;28;20455;-69
2021/03/10 08:58:33;;;;;;;28.90;23.10;;;7.50;99.90;;;;;;5032689;28;20441;-70
2021/03/10 09:00:59;;;;;;;29.53;21.50;;;7.60;99.90;;;;;;5032869;28;20430;-70
2021/03/10 09:03:24;;;;;;;32.53;23.30;;;7.60;99.90;;;;;;5032836;28;20457;-67
2021/03/10 09:05:52;;;;;;;31.27;22.90;;;7.70;99.90;;;;;;5033043;28;20175;-70
2021/03/10 09:08:24;;;;;;;30.23;22.13;;;7.70;99.90;;;;;;5031998;28;20253;-69
2021/03/10 09:10:52;;;;;;;29.50;21.67;;;7.80;99.90;;;;;;5032871;28;20456;-69
2021/03/10 09:13:19;;;;;;;27.07;20.73;;;7.80;99.90;;;;;;5033041;28;20812;-70
2021/03/10 09:15:45;;;;;;;26.87;21.00;;;7.80;99.90;;;;;;5033035;28;20421;-69
2021/03/10 09:18:10;;;;;;;32.17;23.37;;;7.80;99.90;;;;;;5032604;28;20460;-69
2021/03/10 09:20:38;;;;;;;31.63;22.23;;;7.90;99.90;;;;;;5032535;28;20286;-68
2021/03/10 09:23:05;;;;;;;32.27;21.67;;;7.90;99.90;;;;;;5032714;28;20291;-68
2021/03/10 09:25:34;;;;;;;29.00;21.17;;;8.00;99.90;;;;;;5040807;28;20461;-67
2021/03/10 09:28:11;;;;;;;29.23;21.07;;;8.10;99.90;;;;;;5047434;28;20996;-69
2021/03/10 09:30:45;;;;;;;32.47;20.60;;;8.00;99.90;;;;;;5043751;28;20445;-69
2021/03/10 09:33:21;;;;;;;31.70;22.70;;;8.00;99.90;;;;;;5032441;28;20457;-69
2021/03/10 09:35:55;;;;;;;30.43;20.97;;;8.10;99.90;;;;;;5046222;28;20766;-68
2021/03/10 09:38:21;;;;;;;33.97;21.20;;;8.20;99.90;;;;;;5037137;28;20820;-68
2021/03/10 09:40:53;;;;;;;30.27;21.17;;;8.20;99.90;;;;;;5031831;28;20429;-70
2021/03/10 09:43:21;;;;;;;31.03;22.13;;;8.30;99.90;;;;;;5036008;28;20550;-68
2021/03/10 09:45:48;;;;;;;32.53;22.50;;;8.30;99.90;;;;;;5044738;28;20793;-68
2021/03/10 09:48:18;;;;;;;32.00;21.23;;;8.40;99.90;;;;;;5037534;28;20443;-69
2021/03/10 09:50:46;;;;;;;28.53;20.63;;;8.50;99.90;;;;;;5036016;28;20433;-68
2021/03/10 09:53:25;;;;;;;34.20;22.60;;;8.60;99.90;;;;;;5036749;28;20411;-69
2021/03/10 09:55:52;;;;;;;30.03;21.90;;;8.60;99.90;;;;;;5043423;28;20904;-70
2021/03/10 09:58:18;;;;;;;30.93;21.20;;;8.70;99.90;;;;;;5066145;28;20424;-69
2021/03/10 10:00:44;;;;;;;30.23;21.57;;;8.80;99.90;;;;;;5036405;28;20436;-69
2021/03/10 10:03:11;;;;;;;33.57;23.17;;;8.90;99.90;;;;;;5036606;28;20205;-69
2021/03/10 10:05:39;;;;;;;34.50;21.80;;;8.90;99.90;;;;;;5037028;28;20402;-69
2021/03/10 10:08:07;;;;;;;32.17;21.40;;;8.90;99.90;;;;;;5036793;28;20412;-69
2021/03/10 10:10:34;;;;;;;36.73;24.50;;;9.00;99.90;;;;;;5038622;28;20440;-68
2021/03/10 10:13:01;;;;;;;32.83;23.83;;;9.00;99.90;;;;;;5039981;28;20425;-68
2021/03/10 10:15:34;;;;;;;33.30;23.07;;;9.00;99.90;;;;;;5042529;28;20425;-68
2021/03/10 10:18:04;;;;;;;31.13;22.30;;;9.00;99.90;;;;;;5056757;28;20418;-69
2021/03/10 10:20:33;;;;;;;31.17;23.27;;;9.10;99.90;;;;;;5069287;28;20970;-69
2021/03/10 10:22:59;;;;;;;31.33;22.37;;;9.20;99.90;;;;;;5066067;28;20446;-70
2021/03/10 10:25:25;;;;;;;33.97;23.03;;;9.30;99.90;;;;;;5057914;28;20416;-68
2021/03/10 10:27:51;;;;;;;29.83;22.20;;;9.40;99.90;;;;;;5056772;28;20170;-68
2021/03/10 10:30:20;;;;;;;29.63;21.43;;;9.40;99.90;;;;;;5051795;28;20232;-70
2021/03/10 10:32:48;;;;;;;35.13;23.50;;;9.50;99.90;;;;;;5036575;28;20413;-70
2021/03/10 10:35:15;;;;;;;34.70;22.80;;;9.60;99.90;;;;;;5037573;28;20524;-69
2021/03/10 10:37:41;;;;;;;32.87;23.83;;;9.70;99.90;;;;;;5045680;28;20410;-69
2021/03/10 10:40:09;;;;;;;31.40;22.03;;;9.80;99.90;;;;;;5043797;28;20439;-69
2021/03/10 10:42:35;;;;;;;33.97;23.53;;;9.90;99.90;;;;;;5049801;28;21003;-68
2021/03/10 10:45:01;;;;;;;33.03;22.20;;;9.90;99.90;;;;;;5055712;28;20427;-69
2021/03/10 10:47:26;;;;;;;31.97;23.57;;;9.90;99.90;;;;;;5055559;28;20171;-69
2021/03/10 10:49:52;;;;;;;32.63;22.10;;;9.80;99.90;;;;;;5054946;28;20182;-68
2021/03/10 10:52:19;;;;;;;29.80;20.80;;;9.90;99.90;;;;;;5053681;28;20530;-69
2021/03/10 10:54:45;;;;;;;30.77;21.77;;;10.00;99.90;;;;;;5055117;28;20948;-68
2021/03/10 10:57:10;;;;;;;26.00;19.90;;;10.00;99.90;;;;;;5070269;28;20415;-68
2021/03/10 10:59:36;;;;;;;29.43;21.30;;;10.00;99.90;;;;;;5074666;28;20262;-68
2021/03/10 11:02:02;;;;;;;28.47;21.50;;;10.00;99.90;;;;;;5067546;28;20186;-69
2021/03/10 11:04:28;;;;;;;28.20;20.03;;;10.10;99.90;;;;;;5035283;28;20199;-69
2021/03/10 11:06:53;;;;;;;28.23;20.70;;;10.00;99.90;;;;;;5034996;28;20164;-69
2021/03/10 11:09:19;;;;;;;29.03;21.03;;;10.00;99.90;;;;;;5035258;28;20163;-69
2021/03/10 11:11:44;;;;;;;32.10;23.20;;;10.10;99.90;;;;;;5035373;28;20182;-71
2021/03/10 11:14:10;;;;;;;31.07;21.80;;;10.20;99.90;;;;;;5034615;28;20256;-69
2021/03/10 11:16:36;;;;;;;26.27;20.10;;;10.20;99.90;;;;;;5034554;28;20171;-69
2021/03/10 11:19:01;;;;;;;34.53;22.47;;;10.30;99.90;;;;;;5034066;28;20202;-69
2021/03/10 11:21:27;;;;;;;29.00;20.87;;;10.20;99.90;;;;;;5033759;28;20572;-69
2021/03/10 11:23:52;;;;;;;30.23;20.80;;;10.30;99.90;;;;;;5035778;28;20231;-69
2021/03/10 11:26:18;;;;;;;27.97;19.63;;;10.20;99.90;;;;;;5034585;28;20171;-69
2021/03/10 11:28:43;;;;;;;33.30;20.97;;;10.30;99.90;;;;;;5036183;28;20175;-69
2021/03/10 11:31:09;;;;;;;28.70;20.67;;;10.30;99.90;;;;;;5035108;28;20186;-69
2021/03/10 11:33:35;;;;;;;29.23;20.10;;;10.30;99.90;;;;;;5035418;28;20182;-69
2021/03/10 11:36:02;;;;;;;28.10;20.07;;;10.30;99.90;;;;;;5035234;28;20170;-69
2021/03/10 11:38:28;;;;;;;25.30;18.63;;;10.30;99.90;;;;;;5045543;28;20459;-68
2021/03/10 11:40:54;;;;;;;29.50;21.13;;;10.30;99.90;;;;;;5047687;28;20992;-69
2021/03/10 11:43:20;;;;;;;28.87;20.57;;;10.40;99.90;;;;;;5045795;28;20209;-69
2021/03/10 11:45:46;;;;;;;28.25;22.48;;;10.40;99.90;;;;;;5038893;28;20821;-69
2021/03/10 11:48:11;;;;;;;28.27;19.57;;;10.50;99.90;;;;;;5052015;28;20659;-69
2021/03/10 11:50:37;;;;;;;29.83;19.97;;;10.60;99.90;;;;;;5048710;28;20185;-69
2021/03/10 11:53:09;;;;;;;27.23;18.63;;;10.60;99.90;;;;;;5054824;28;20211;-70
2021/03/10 11:55:36;;;;;;;25.57;18.80;;;10.70;99.90;;;;;;5049671;28;20423;-68
2021/03/10 11:58:02;;;;;;;26.27;17.53;;;10.70;99.90;;;;;;5058361;28;20420;-69
2021/03/10 12:00:28;;;;;;;25.73;19.03;;;10.80;99.90;;;;;;5073830;28;20575;-68
2021/03/10 12:02:54;;;;;;;25.77;17.80;;;10.80;99.90;;;;;;5056616;28;20452;-69
2021/03/10 12:05:20;;;;;;;24.63;18.70;;;10.90;99.90;;;;;;5037607;28;20811;-68
2021/03/10 12:07:46;;;;;;;23.07;17.10;;;10.90;99.90;;;;;;5062966;28;20661;-68
2021/03/10 12:10:13;;;;;;;22.50;16.10;;;11.00;99.90;;;;;;5053918;28;20599;-70
2021/03/10 12:12:55;;;;;;;21.23;16.00;;;11.00;99.90;;;;;;5063397;28;21282;-69
2021/03/10 12:15:21;;;;;;;22.27;16.23;;;11.10;99.90;;;;;;5057833;28;20440;-70
2021/03/10 12:17:47;;;;;;;18.87;14.23;;;11.20;99.90;;;;;;5063573;28;21078;-69
2021/03/10 12:20:12;;;;;;;21.37;15.10;;;11.30;99.70;;;;;;5059390;28;20208;-70
2021/03/10 12:22:38;;;;;;;20.60;14.27;;;11.30;98.90;;;;;;5056254;28;20673;-69
2021/03/10 12:25:06;;;;;;;18.83;14.37;;;11.30;99.00;;;;;;5056313;28;20178;-69
2021/03/10 12:27:31;;;;;;;20.37;14.70;;;11.40;98.90;;;;;;5065631;28;20447;-69
2021/03/10 12:29:58;;;;;;;20.90;13.20;;;11.40;98.60;;;;;;5044731;28;20445;-69
2021/03/10 12:32:24;;;;;;;17.47;13.10;;;11.40;97.90;;;;;;5053232;28;20182;-70
2021/03/10 12:34:51;;;;;;;15.93;11.83;;;11.40;97.50;;;;;;5046022;28;20420;-69
2021/03/10 12:37:17;;;;;;;23.40;14.20;;;11.40;96.80;;;;;;5053890;28;20443;-70